createdAt,value
2018-09-05T00:00:20.306Z,16.85
2018-09-05T00:01:20.247Z,16.87
2018-09-05T00:02:20.257Z,16.70
2018-09-05T00:03:20.313Z,16.77
2018-09-05T00:04:20.324Z,16.73
2018-09-05T00:05:20.207Z,16.70
2018-09-05T00:06:20.198Z,16.72
2018-09-05T00:07:20.207Z,16.66
2018-09-05T00:08:20.178Z,16.60
2018-09-05T00:09:20.195Z,16.60
2018-09-05T00:10:20.156Z,16.57
2018-09-05T00:11:20.193Z,16.62
2018-09-05T00:12:20.145Z,16.62
2018-09-05T00:13:20.131Z,16.60
2018-09-05T00:14:20.162Z,16.65
2018-09-05T00:15:20.105Z,16.63
2018-09-05T00:16:20.104Z,16.69
2018-09-05T00:17:20.097Z,16.78
2018-09-05T00:18:20.087Z,16.70
2018-09-05T00:19:20.134Z,16.82
2018-09-05T00:20:20.051Z,16.69
2018-09-05T00:21:20.050Z,16.82
2018-09-05T00:22:20.076Z,16.73
2018-09-05T00:23:20.017Z,16.82
2018-09-05T00:24:20.007Z,16.81
2018-09-05T00:25:20.008Z,16.73
2018-09-05T00:26:20.042Z,16.77
2018-09-05T00:27:19.996Z,16.70
2018-09-05T00:28:19.959Z,16.73
2018-09-05T00:29:19.965Z,16.63
2018-09-05T00:30:19.946Z,16.57
2018-09-05T00:31:19.923Z,16.47
2018-09-05T00:32:19.959Z,16.32
2018-09-05T00:33:19.972Z,16.18
2018-09-05T00:34:19.891Z,16.03
2018-09-05T00:35:19.895Z,16.08
2018-09-05T00:36:19.877Z,15.89
2018-09-05T00:37:19.887Z,15.74
2018-09-05T00:38:19.848Z,15.52
2018-09-05T00:39:19.895Z,15.60
2018-09-05T00:40:19.825Z,15.35
2018-09-05T00:41:19.819Z,15.41
2018-09-05T00:42:19.948Z,15.33
2018-09-05T00:43:19.801Z,15.30
2018-09-05T00:44:19.787Z,15.25
2018-09-05T00:45:19.888Z,15.27
2018-09-05T00:46:19.774Z,15.41
2018-09-05T00:47:19.780Z,15.64
2018-09-05T00:48:19.751Z,15.60
2018-09-05T00:49:19.737Z,15.40
2018-09-05T00:50:19.729Z,15.37
2018-09-05T00:51:19.795Z,15.23
2018-09-05T00:52:19.729Z,15.16
2018-09-05T00:53:19.736Z,15.16
2018-09-05T00:54:19.696Z,15.01
2018-09-05T00:55:19.677Z,14.91
2018-09-05T00:56:19.666Z,14.94
2018-09-05T00:57:19.677Z,14.78
2018-09-05T00:58:19.637Z,14.60
2018-09-05T00:59:19.697Z,14.45
2018-09-05T01:00:19.621Z,14.41
2018-09-05T01:01:19.624Z,14.30
2018-09-05T01:02:19.620Z,14.27
2018-09-05T01:03:19.587Z,14.29
2018-09-05T01:04:19.574Z,14.13
2018-09-05T01:05:19.603Z,13.90
2018-09-05T01:06:19.561Z,13.94
2018-09-05T01:07:19.552Z,13.72
2018-09-05T01:08:19.630Z,13.71
2018-09-05T01:09:19.521Z,13.61
2018-09-05T01:10:19.512Z,13.66
2018-09-05T01:11:19.496Z,13.57
2018-09-05T01:12:19.483Z,13.57
2018-09-05T01:13:19.488Z,13.41
2018-09-05T01:14:19.522Z,13.39
2018-09-05T01:15:19.450Z,13.36
2018-09-05T01:16:19.461Z,13.43
2018-09-05T01:17:19.423Z,13.36
2018-09-05T01:18:19.430Z,13.39
2018-09-05T01:19:19.405Z,13.35
2018-09-05T01:20:19.452Z,13.35
2018-09-05T01:21:19.385Z,13.38
2018-09-05T01:22:19.378Z,13.29
2018-09-05T01:23:19.380Z,13.25
2018-09-05T01:24:19.503Z,13.25
2018-09-05T01:25:19.346Z,13.19
2018-09-05T01:26:19.342Z,13.21
2018-09-05T01:27:19.384Z,13.24
2018-09-05T01:28:19.331Z,13.21
2018-09-05T01:29:19.300Z,13.25
2018-09-05T01:30:19.301Z,13.22
2018-09-05T01:31:19.281Z,13.06
2018-09-05T01:32:19.270Z,13.03
2018-09-05T01:33:19.356Z,13.14
2018-09-05T01:34:19.275Z,13.06
2018-09-05T01:35:19.234Z,13.12
2018-09-05T01:36:19.221Z,13.16
2018-09-05T01:37:19.215Z,13.07
2018-09-05T01:38:19.225Z,12.91
2018-09-05T01:39:19.322Z,12.91
2018-09-05T01:40:19.181Z,13.01
2018-09-05T01:41:19.168Z,13.06
2018-09-05T01:42:19.159Z,13.01
2018-09-05T01:43:19.178Z,13.06
2018-09-05T01:44:19.147Z,13.03
2018-09-05T01:45:19.234Z,13.06
2018-09-05T01:46:19.118Z,13.07
2018-09-05T01:47:19.110Z,13.04
2018-09-05T01:48:19.114Z,12.95
2018-09-05T01:49:19.080Z,12.94
2018-09-05T01:50:19.072Z,12.85
2018-09-05T01:51:19.118Z,12.85
2018-09-05T01:52:19.059Z,12.77
2018-09-05T01:53:19.066Z,12.91
2018-09-05T01:54:19.072Z,12.74
2018-09-05T01:55:19.026Z,12.74
2018-09-05T01:56:19.015Z,12.63
2018-09-05T01:57:18.994Z,12.61
2018-09-05T01:58:19.092Z,12.54
2018-09-05T01:59:18.984Z,12.52
2018-09-05T02:00:18.966Z,12.56
2018-09-05T02:01:18.948Z,12.62
2018-09-05T02:02:18.950Z,12.58
2018-09-05T02:03:19.006Z,12.56
2018-09-05T02:04:18.935Z,12.71
2018-09-05T02:05:19.011Z,12.88
2018-09-05T02:06:18.923Z,12.85
2018-09-05T02:07:18.888Z,12.89
2018-09-05T02:08:18.931Z,12.91
2018-09-05T02:09:18.873Z,12.87
2018-09-05T02:10:18.912Z,12.91
2018-09-05T02:11:18.851Z,12.77
2018-09-05T02:12:18.836Z,12.74
2018-09-05T02:13:18.905Z,12.80
2018-09-05T02:14:18.828Z,12.77
2018-09-05T02:15:18.802Z,12.71
2018-09-05T02:16:18.796Z,12.70
2018-09-05T02:17:18.793Z,12.76
2018-09-05T02:18:18.854Z,12.77
2018-09-05T02:19:18.789Z,12.74
2018-09-05T02:20:18.751Z,12.74
2018-09-05T02:21:18.749Z,12.76
2018-09-05T02:22:18.725Z,12.79
2018-09-05T02:23:18.729Z,12.79
2018-09-05T02:24:18.724Z,13.01
2018-09-05T02:25:18.693Z,13.27
2018-09-05T02:26:18.738Z,13.25
2018-09-05T02:27:18.682Z,13.21
2018-09-05T02:28:18.683Z,13.25
2018-09-05T02:29:18.667Z,13.17
2018-09-05T02:30:18.654Z,13.38
2018-09-05T02:31:18.641Z,13.41
2018-09-05T02:32:18.637Z,13.41
2018-09-05T02:33:18.637Z,13.61
2018-09-05T02:34:18.626Z,13.61
2018-09-05T02:35:18.620Z,13.87
2018-09-05T02:36:18.588Z,13.98
2018-09-05T02:37:18.629Z,14.17
2018-09-05T02:38:18.552Z,14.38
2018-09-05T02:39:18.587Z,14.57
2018-09-05T02:40:18.580Z,14.61
2018-09-05T02:41:18.531Z,14.61
2018-09-05T02:42:18.583Z,14.66
2018-09-05T02:43:18.547Z,14.66
2018-09-05T02:44:18.514Z,14.72
2018-09-05T02:45:18.572Z,14.86
2018-09-05T02:46:18.478Z,15.00
2018-09-05T02:47:18.465Z,15.00
2018-09-05T02:48:18.460Z,15.07
2018-09-05T02:49:18.509Z,15.12
2018-09-05T02:50:18.439Z,15.11
2018-09-05T02:51:18.418Z,15.16
2018-09-05T02:52:18.418Z,15.18
2018-09-05T02:53:18.392Z,15.27
2018-09-05T02:54:18.421Z,15.27
2018-09-05T02:55:18.394Z,15.38
2018-09-05T02:56:18.456Z,15.62
2018-09-05T02:57:18.355Z,15.55
2018-09-05T02:58:18.356Z,15.55
2018-09-05T02:59:18.355Z,15.62
2018-09-05T03:00:18.353Z,15.64
2018-09-05T03:01:18.333Z,15.68
2018-09-05T03:02:18.302Z,15.70
2018-09-05T03:03:18.286Z,15.68
2018-09-05T03:04:18.414Z,15.64
2018-09-05T03:05:18.271Z,15.70
2018-09-05T03:06:18.252Z,15.55
2018-09-05T03:07:18.244Z,15.58
2018-09-05T03:08:18.239Z,15.59
2018-09-05T03:09:18.222Z,15.60
2018-09-05T03:10:18.266Z,15.59
2018-09-05T03:11:18.210Z,15.55
2018-09-05T03:12:18.195Z,15.70
2018-09-05T03:13:18.185Z,15.73
2018-09-05T03:14:18.165Z,15.62
2018-09-05T03:15:18.183Z,15.76
2018-09-05T03:16:18.220Z,15.71
2018-09-05T03:17:18.140Z,15.73
2018-09-05T03:18:18.124Z,15.76
2018-09-05T03:19:18.118Z,15.76
2018-09-05T03:20:18.138Z,15.73
2018-09-05T03:21:18.111Z,15.77
2018-09-05T03:22:18.082Z,15.84
2018-09-05T03:23:18.144Z,15.89
2018-09-05T03:24:18.073Z,15.81
2018-09-05T03:25:18.060Z,15.78
2018-09-05T03:26:18.039Z,15.76
2018-09-05T03:27:18.048Z,15.77
2018-09-05T03:28:18.012Z,15.68
2018-09-05T03:29:18.058Z,15.70
2018-09-05T03:30:18.018Z,15.67
2018-09-05T03:31:17.980Z,15.66
2018-09-05T03:32:18.069Z,15.60
2018-09-05T03:33:17.965Z,15.58
2018-09-05T03:34:17.958Z,15.51
2018-09-05T03:35:18.020Z,15.52
2018-09-05T03:36:17.929Z,15.55
2018-09-05T03:37:17.920Z,15.51
2018-09-05T03:38:17.907Z,15.70
2018-09-05T03:39:17.896Z,15.66
2018-09-05T03:40:17.908Z,15.60
2018-09-05T03:41:17.910Z,15.67
2018-09-05T03:42:17.858Z,15.70
2018-09-05T03:43:17.849Z,15.74
2018-09-05T03:44:17.838Z,15.77
2018-09-05T03:45:17.839Z,15.74
2018-09-05T03:46:17.814Z,15.73
2018-09-05T03:47:17.838Z,15.85
2018-09-05T03:48:17.791Z,15.78
2018-09-05T03:49:17.780Z,15.84
2018-09-05T03:50:17.785Z,15.84
2018-09-05T03:51:17.766Z,15.85
2018-09-05T03:52:17.748Z,15.77
2018-09-05T03:53:17.773Z,15.77
2018-09-05T03:54:17.727Z,15.71
2018-09-05T03:55:17.735Z,15.84
2018-09-05T03:56:17.707Z,15.86
2018-09-05T03:57:17.699Z,15.77
2018-09-05T03:58:17.682Z,15.77
2018-09-05T03:59:17.714Z,15.71
2018-09-05T04:00:17.675Z,15.66
2018-09-05T04:01:17.649Z,15.64
2018-09-05T04:02:17.663Z,15.62
2018-09-05T04:03:17.630Z,15.56
2018-09-05T04:04:17.618Z,15.58
2018-09-05T04:05:17.664Z,15.62
2018-09-05T04:06:17.640Z,15.60
2018-09-05T04:07:17.681Z,15.55
2018-09-05T04:08:17.574Z,15.44
2018-09-05T04:09:17.564Z,15.44
2018-09-05T04:10:17.613Z,15.25
2018-09-05T04:11:17.583Z,15.27
2018-09-05T04:12:17.600Z,15.33
2018-09-05T04:13:17.521Z,15.31
2018-09-05T04:14:17.510Z,15.35
2018-09-05T04:15:17.517Z,15.27
2018-09-05T04:16:17.486Z,15.35
2018-09-05T04:17:17.505Z,15.38
2018-09-05T04:18:17.470Z,15.40
2018-09-05T04:19:17.459Z,15.40
2018-09-05T04:20:17.503Z,15.38
2018-09-05T04:21:17.438Z,15.46
2018-09-05T04:22:17.422Z,15.53
2018-09-05T04:23:17.431Z,15.58
2018-09-05T04:24:17.401Z,15.56
2018-09-05T04:25:17.391Z,15.62
2018-09-05T04:26:17.395Z,15.55
2018-09-05T04:27:17.369Z,15.64
2018-09-05T04:28:17.359Z,15.62
2018-09-05T04:29:17.371Z,15.62
2018-09-05T04:30:17.341Z,15.68
2018-09-05T04:31:17.352Z,15.62
2018-09-05T04:32:17.313Z,15.62
2018-09-05T04:33:17.303Z,15.62
2018-09-05T04:34:17.295Z,15.58
2018-09-05T04:35:17.320Z,15.67
2018-09-05T04:36:17.286Z,15.62
2018-09-05T04:37:17.261Z,15.70
2018-09-05T04:38:17.251Z,15.64
2018-09-05T04:39:17.241Z,15.66
2018-09-05T04:40:17.230Z,15.60
2018-09-05T04:41:17.280Z,15.52
2018-09-05T04:42:17.207Z,15.60
2018-09-05T04:43:17.194Z,15.51
2018-09-05T04:44:17.187Z,15.40
2018-09-05T04:45:17.301Z,15.46
2018-09-05T04:46:17.179Z,15.43
2018-09-05T04:47:17.198Z,15.38
2018-09-05T04:48:17.192Z,15.28
2018-09-05T04:49:17.155Z,15.23
2018-09-05T04:50:17.120Z,15.20
2018-09-05T04:51:17.163Z,15.12
2018-09-05T04:52:17.099Z,15.11
2018-09-05T04:53:17.119Z,15.03
2018-09-05T04:54:17.076Z,14.98
2018-09-05T04:55:17.066Z,15.04
2018-09-05T04:56:17.073Z,15.03
2018-09-05T04:57:17.055Z,14.98
2018-09-05T04:58:17.066Z,15.09
2018-09-05T04:59:17.090Z,15.11
2018-09-05T05:00:17.017Z,15.09
2018-09-05T05:01:17.020Z,15.15
2018-09-05T05:02:16.993Z,15.07
2018-09-05T05:03:16.983Z,15.04
2018-09-05T05:04:16.969Z,14.91
2018-09-05T05:05:17.000Z,14.82
2018-09-05T05:06:16.968Z,14.74
2018-09-05T05:07:16.998Z,14.66
2018-09-05T05:08:16.928Z,14.53
2018-09-05T05:09:16.919Z,14.41
2018-09-05T05:10:16.952Z,14.26
2018-09-05T05:11:16.946Z,14.21
2018-09-05T05:12:16.930Z,14.23
2018-09-05T05:13:16.875Z,14.23
2018-09-05T05:14:16.865Z,14.02
2018-09-05T05:15:16.857Z,13.99
2018-09-05T05:16:16.847Z,13.94
2018-09-05T05:17:16.848Z,13.79
2018-09-05T05:18:16.875Z,13.75
2018-09-05T05:19:16.813Z,13.73
2018-09-05T05:20:16.805Z,13.62
2018-09-05T05:21:16.790Z,13.61
2018-09-05T05:22:16.796Z,13.63
2018-09-05T05:23:16.770Z,13.55
2018-09-05T05:24:16.803Z,13.57
2018-09-05T05:25:16.750Z,13.55
2018-09-05T05:26:16.739Z,13.51
2018-09-05T05:27:16.745Z,13.61
2018-09-05T05:28:16.715Z,13.63
2018-09-05T05:29:16.708Z,13.63
2018-09-05T05:30:16.730Z,13.76
2018-09-05T05:31:16.686Z,13.79
2018-09-05T05:32:16.689Z,13.86
2018-09-05T05:33:16.663Z,13.83
2018-09-05T05:34:16.653Z,13.86
2018-09-05T05:35:16.641Z,13.90
2018-09-05T05:36:16.666Z,13.90
2018-09-05T05:37:16.633Z,13.93
2018-09-05T05:38:16.611Z,13.84
2018-09-05T05:39:16.599Z,13.98
2018-09-05T05:40:16.615Z,13.90
2018-09-05T05:41:16.581Z,13.98
2018-09-05T05:42:16.619Z,14.06
2018-09-05T05:43:16.557Z,13.98
2018-09-05T05:44:16.548Z,13.94
2018-09-05T05:45:16.535Z,13.96
2018-09-05T05:46:16.527Z,14.06
2018-09-05T05:47:16.531Z,14.05
2018-09-05T05:48:16.534Z,14.08
2018-09-05T05:49:16.493Z,14.16
2018-09-05T05:50:16.481Z,14.29
2018-09-05T05:51:16.474Z,14.36
2018-09-05T05:52:16.517Z,14.44
2018-09-05T05:53:16.449Z,14.46
2018-09-05T05:54:16.467Z,14.49
2018-09-05T05:55:16.429Z,14.71
2018-09-05T05:56:16.421Z,14.67
2018-09-05T05:57:16.421Z,14.71
2018-09-05T05:58:16.395Z,14.85
2018-09-05T05:59:16.389Z,14.90
2018-09-05T06:00:16.395Z,15.13
2018-09-05T06:01:16.477Z,15.48
2018-09-05T06:02:16.367Z,15.78
2018-09-05T06:03:16.348Z,16.07
2018-09-05T06:04:16.333Z,16.70
2018-09-05T06:05:16.322Z,17.17
2018-09-05T06:06:16.488Z,17.65
2018-09-05T06:07:16.387Z,18.01
2018-09-05T06:08:16.292Z,18.41
2018-09-05T06:09:16.281Z,18.66
2018-09-05T06:10:16.269Z,18.91
2018-09-05T06:11:16.256Z,19.07
2018-09-05T06:12:16.243Z,19.16
2018-09-05T06:13:16.295Z,19.27
2018-09-05T06:14:16.223Z,19.42
2018-09-05T06:15:16.213Z,19.78
2018-09-05T06:16:16.203Z,20.19
2018-09-05T06:17:16.194Z,20.46
2018-09-05T06:18:16.224Z,20.61
2018-09-05T06:19:16.215Z,20.61
2018-09-05T06:20:16.159Z,20.68
2018-09-05T06:21:16.148Z,20.48
2018-09-05T06:22:16.139Z,20.40
2018-09-05T06:23:16.140Z,20.34
2018-09-05T06:24:16.118Z,20.30
2018-09-05T06:25:16.124Z,20.22
2018-09-05T06:26:16.097Z,20.31
2018-09-05T06:27:16.083Z,20.31
2018-09-05T06:28:16.092Z,20.40
2018-09-05T06:29:16.061Z,20.68
2018-09-05T06:30:16.065Z,20.98
2018-09-05T06:31:16.375Z,21.46
2018-09-05T06:32:16.035Z,21.46
2018-09-05T06:33:16.028Z,21.22
2018-09-05T06:34:16.067Z,21.21
2018-09-05T06:35:15.996Z,20.97
2018-09-05T06:36:15.984Z,20.90
2018-09-05T06:37:16.006Z,20.97
2018-09-05T06:38:15.987Z,20.94
2018-09-05T06:39:15.951Z,21.03
2018-09-05T06:40:15.943Z,21.19
2018-09-05T06:41:15.929Z,21.30
2018-09-05T06:42:15.919Z,21.51
2018-09-05T06:43:15.958Z,21.45
2018-09-05T06:44:15.901Z,21.61
2018-09-05T06:45:15.893Z,21.82
2018-09-05T06:46:15.881Z,21.79
2018-09-05T06:47:15.876Z,21.77
2018-09-05T06:48:15.869Z,22.01
2018-09-05T06:49:15.889Z,21.99
2018-09-05T06:50:15.833Z,22.02
2018-09-05T06:51:15.857Z,22.09
2018-09-05T06:52:15.812Z,22.48
2018-09-05T06:53:15.813Z,22.78
2018-09-05T06:54:15.787Z,23.07
2018-09-05T06:55:15.850Z,23.44
2018-09-05T06:56:15.766Z,23.00
2018-09-05T06:57:15.759Z,23.31
2018-09-05T06:58:15.785Z,23.50
2018-09-05T06:59:15.739Z,23.63
2018-09-05T07:00:15.766Z,23.78
2018-09-05T07:01:15.747Z,23.84
2018-09-05T07:02:15.705Z,24.12
2018-09-05T07:03:15.709Z,24.27
2018-09-05T07:04:15.683Z,24.27
2018-09-05T07:05:15.672Z,24.02
2018-09-05T07:06:15.661Z,24.04
2018-09-05T07:07:15.675Z,23.59
2018-09-05T07:08:15.656Z,23.71
2018-09-05T07:09:15.644Z,23.67
2018-09-05T07:10:15.627Z,23.89
2018-09-05T07:11:15.606Z,23.94
2018-09-05T07:12:15.598Z,24.02
2018-09-05T07:13:15.733Z,24.16
2018-09-05T07:14:15.653Z,24.37
2018-09-05T07:15:15.572Z,24.51
2018-09-05T07:16:15.552Z,24.27
2018-09-05T07:17:15.542Z,24.37
2018-09-05T07:18:15.592Z,24.51
2018-09-05T07:19:15.535Z,24.64
2018-09-05T07:20:15.537Z,24.94
2018-09-05T07:21:15.574Z,25.14
2018-09-05T07:22:15.487Z,25.57
2018-09-05T07:23:15.476Z,25.83
2018-09-05T07:24:15.484Z,25.57
2018-09-05T07:25:15.456Z,25.81
2018-09-05T07:26:15.481Z,25.46
2018-09-05T07:27:15.432Z,25.48
2018-09-05T07:28:15.423Z,25.78
2018-09-05T07:29:15.429Z,25.69
2018-09-05T07:30:15.412Z,25.38
2018-09-05T07:31:15.391Z,25.09
2018-09-05T07:32:15.408Z,24.46
2018-09-05T07:33:15.369Z,24.41
2018-09-05T07:34:15.373Z,24.52
2018-09-05T07:35:15.348Z,24.49
2018-09-05T07:36:15.341Z,24.52
2018-09-05T07:37:15.326Z,24.31
2018-09-05T07:38:15.353Z,24.39
2018-09-05T07:39:15.322Z,23.93
2018-09-05T07:40:15.299Z,24.09
2018-09-05T07:41:15.283Z,24.05
2018-09-05T07:42:15.272Z,24.39
2018-09-05T07:43:15.261Z,24.41
2018-09-05T07:44:15.310Z,24.87
2018-09-05T07:45:15.241Z,25.17
2018-09-05T07:46:15.230Z,25.36
2018-09-05T07:47:15.219Z,25.51
2018-09-05T07:48:15.212Z,25.79
2018-09-05T07:49:15.226Z,25.53
2018-09-05T07:50:15.219Z,25.24
2018-09-05T07:51:15.176Z,25.31
2018-09-05T07:52:15.200Z,24.71
2018-09-05T07:53:15.155Z,24.44
2018-09-05T07:54:15.144Z,24.48
2018-09-05T07:55:15.200Z,25.07
2018-09-05T07:56:15.150Z,25.51
2018-09-05T07:57:15.161Z,25.75
2018-09-05T07:58:15.100Z,26.01
2018-09-05T07:59:15.090Z,26.36
2018-09-05T08:00:15.093Z,26.49
2018-09-05T08:01:15.070Z,26.65
2018-09-05T08:02:15.090Z,25.96
2018-09-05T08:03:15.049Z,25.74
2018-09-05T08:04:15.036Z,25.23
2018-09-05T08:05:15.041Z,25.39
2018-09-05T08:06:15.016Z,25.30
2018-09-05T08:07:15.006Z,25.30
2018-09-05T08:08:15.021Z,25.04
2018-09-05T08:09:14.991Z,25.04
2018-09-05T08:10:14.991Z,25.09
2018-09-05T08:11:14.962Z,24.94
2018-09-05T08:12:14.956Z,25.19
2018-09-05T08:13:14.942Z,25.35
2018-09-05T08:14:14.961Z,25.29
2018-09-05T08:15:14.934Z,25.34
2018-09-05T08:16:14.906Z,25.56
2018-09-05T08:17:14.897Z,26.09
2018-09-05T08:18:15.036Z,26.49
2018-09-05T08:19:14.877Z,26.86
2018-09-05T08:20:14.906Z,26.78
2018-09-05T08:21:14.856Z,26.35
2018-09-05T08:22:14.844Z,26.11
2018-09-05T08:23:14.834Z,26.00
2018-09-05T08:24:14.892Z,26.00
2018-09-05T08:25:14.849Z,25.93
2018-09-05T08:26:14.883Z,26.09
2018-09-05T08:27:14.796Z,26.13
2018-09-05T08:28:14.789Z,26.94
2018-09-05T08:29:14.857Z,26.91
2018-09-05T08:30:14.771Z,26.23
2018-09-05T08:31:14.748Z,26.46
2018-09-05T08:32:14.765Z,26.84
2018-09-05T08:33:14.727Z,27.03
2018-09-05T08:34:14.755Z,26.76
2018-09-05T08:35:14.896Z,26.78
2018-09-05T08:36:14.927Z,26.72
2018-09-05T08:37:14.848Z,27.24
2018-09-05T08:38:14.755Z,27.49
2018-09-05T08:39:14.665Z,27.43
2018-09-05T08:40:14.704Z,26.98
2018-09-05T08:41:14.685Z,26.71
2018-09-05T08:42:14.655Z,26.51
2018-09-05T08:43:14.687Z,26.35
2018-09-05T08:44:14.802Z,26.73
2018-09-05T08:45:14.807Z,27.16
2018-09-05T08:46:14.646Z,27.81
2018-09-05T08:47:14.629Z,27.84
2018-09-05T08:48:14.668Z,28.01
2018-09-05T08:49:14.566Z,27.61
2018-09-05T08:50:14.633Z,27.62
2018-09-05T08:51:14.573Z,27.31
2018-09-05T08:52:14.566Z,26.96
2018-09-05T08:53:14.518Z,27.23
2018-09-05T08:54:14.531Z,27.40
2018-09-05T08:55:14.578Z,27.24
2018-09-05T08:56:14.504Z,27.35
2018-09-05T08:57:14.503Z,27.45
2018-09-05T08:58:14.463Z,27.58
2018-09-05T08:59:14.521Z,27.53
2018-09-05T09:00:14.442Z,27.06
2018-09-05T09:01:14.443Z,27.31
2018-09-05T09:02:14.465Z,27.38
2018-09-05T09:03:14.425Z,27.77
2018-09-05T09:04:14.409Z,28.27
2018-09-05T09:05:14.451Z,27.95
2018-09-05T09:06:14.426Z,27.74
2018-09-05T09:07:14.379Z,27.71
2018-09-05T09:08:14.369Z,28.35
2018-09-05T09:09:14.368Z,28.74
2018-09-05T09:10:14.349Z,28.43
2018-09-05T09:11:14.434Z,28.42
2018-09-05T09:12:14.350Z,28.38
2018-09-05T09:13:14.304Z,28.13
2018-09-05T09:14:14.313Z,28.02
2018-09-05T09:15:14.300Z,28.35
2018-09-05T09:16:14.313Z,28.61
2018-09-05T09:17:14.291Z,28.73
2018-09-05T09:18:14.253Z,28.73
2018-09-05T09:19:14.266Z,28.98
2018-09-05T09:20:14.259Z,28.09
2018-09-05T09:21:14.246Z,27.50
2018-09-05T09:22:14.213Z,27.61
2018-09-05T09:23:14.199Z,27.33
2018-09-05T09:24:14.191Z,27.21
2018-09-05T09:25:14.195Z,27.78
2018-09-05T09:26:14.202Z,28.27
2018-09-05T09:27:14.193Z,27.81
2018-09-05T09:28:14.232Z,27.84
2018-09-05T09:29:14.155Z,28.14
2018-09-05T09:30:14.131Z,27.68
2018-09-05T09:31:14.215Z,27.35
2018-09-05T09:32:14.164Z,27.76
2018-09-05T09:33:14.098Z,28.27
2018-09-05T09:34:14.107Z,28.65
2018-09-05T09:35:14.114Z,29.05
2018-09-05T09:36:14.067Z,28.83
2018-09-05T09:37:14.102Z,29.07
2018-09-05T09:38:14.045Z,29.33
2018-09-05T09:39:14.035Z,29.60
2018-09-05T09:40:14.025Z,29.66
2018-09-05T09:41:14.014Z,29.64
2018-09-05T09:42:14.027Z,29.35
2018-09-05T09:43:14.063Z,28.94
2018-09-05T09:44:14.003Z,29.35
2018-09-05T09:45:13.972Z,29.41
2018-09-05T09:46:13.967Z,29.63
2018-09-05T09:47:14.029Z,29.49
2018-09-05T09:48:13.955Z,29.03
2018-09-05T09:49:13.942Z,29.20
2018-09-05T09:50:13.928Z,29.32
2018-09-05T09:51:13.952Z,29.36
2018-09-05T09:52:13.923Z,29.76
2018-09-05T09:53:13.923Z,29.74
2018-09-05T09:54:13.884Z,30.11
2018-09-05T09:55:13.887Z,30.03
2018-09-05T09:56:13.888Z,30.00
2018-09-05T09:57:13.891Z,29.49
2018-09-05T09:58:13.842Z,29.48
2018-09-05T09:59:13.830Z,29.70
2018-09-05T10:00:13.841Z,30.07
2018-09-05T10:01:13.893Z,30.08
2018-09-05T10:02:13.817Z,29.91
2018-09-05T10:03:13.801Z,29.88
2018-09-05T10:04:13.783Z,29.73
2018-09-05T10:05:13.798Z,29.91
2018-09-05T10:06:13.760Z,30.16
2018-09-05T10:07:13.817Z,29.74
2018-09-05T10:08:13.744Z,29.51
2018-09-05T10:09:13.732Z,29.03
2018-09-05T10:10:13.921Z,29.12
2018-09-05T10:11:13.746Z,29.58
2018-09-05T10:12:13.715Z,29.79
2018-09-05T10:13:13.695Z,29.33
2018-09-05T10:14:13.678Z,28.74
2018-09-05T10:15:13.669Z,28.74
2018-09-05T10:16:13.660Z,28.92
2018-09-05T10:17:13.789Z,29.02
2018-09-05T10:18:13.659Z,29.08
2018-09-05T10:19:13.631Z,29.47
2018-09-05T10:20:13.619Z,29.79
2018-09-05T10:21:13.609Z,30.07
2018-09-05T10:22:13.603Z,30.46
2018-09-05T10:23:13.606Z,30.66
2018-09-05T10:24:13.615Z,30.81
2018-09-05T10:25:13.574Z,30.76
2018-09-05T10:26:13.560Z,30.18
2018-09-05T10:27:13.555Z,29.84
2018-09-05T10:28:13.556Z,29.45
2018-09-05T10:29:13.532Z,29.99
2018-09-05T10:30:13.540Z,29.91
2018-09-05T10:31:13.520Z,30.03
2018-09-05T10:32:13.516Z,29.63
2018-09-05T10:33:13.532Z,29.10
2018-09-05T10:34:13.482Z,28.87
2018-09-05T10:35:13.472Z,28.95
2018-09-05T10:36:13.459Z,29.00
2018-09-05T10:37:13.450Z,29.33
2018-09-05T10:38:13.455Z,29.66
2018-09-05T10:39:13.435Z,29.41
2018-09-05T10:40:13.497Z,28.83
2018-09-05T10:41:13.440Z,29.32
2018-09-05T10:42:13.401Z,29.42
2018-09-05T10:43:13.568Z,29.58
2018-09-05T10:44:13.476Z,30.01
2018-09-05T10:45:13.373Z,30.06
2018-09-05T10:46:13.364Z,30.29
2018-09-05T10:47:13.369Z,30.66
2018-09-05T10:48:13.403Z,31.05
2018-09-05T10:49:13.352Z,30.73
2018-09-05T10:50:13.335Z,30.94
2018-09-05T10:51:13.407Z,30.82
2018-09-05T10:52:13.314Z,30.67
2018-09-05T10:53:13.318Z,30.85
2018-09-05T10:54:13.306Z,30.82
2018-09-05T10:55:13.282Z,30.59
2018-09-05T10:56:13.445Z,30.60
2018-09-05T10:57:13.279Z,30.07
2018-09-05T10:58:13.309Z,30.04
2018-09-05T10:59:13.303Z,29.81
2018-09-05T11:00:13.231Z,29.91
2018-09-05T11:01:13.227Z,29.92
2018-09-05T11:02:13.294Z,29.84
2018-09-05T11:03:13.234Z,30.01
2018-09-05T11:04:13.242Z,30.51
2018-09-05T11:05:13.198Z,30.82
2018-09-05T11:06:13.199Z,31.15
2018-09-05T11:07:13.175Z,31.13
2018-09-05T11:08:13.150Z,30.13
2018-09-05T11:09:13.174Z,29.86
2018-09-05T11:10:13.169Z,29.60
2018-09-05T11:11:13.119Z,29.71
2018-09-05T11:12:13.111Z,29.64
2018-09-05T11:13:13.101Z,29.57
2018-09-05T11:14:13.108Z,29.91
2018-09-05T11:15:13.091Z,30.36
2018-09-05T11:16:13.083Z,30.75
2018-09-05T11:17:13.076Z,31.04
2018-09-05T11:18:13.054Z,31.15
2018-09-05T11:19:13.059Z,31.03
2018-09-05T11:20:13.040Z,30.59
2018-09-05T11:21:13.076Z,30.70
2018-09-05T11:22:13.017Z,30.76
2018-09-05T11:23:13.016Z,30.83
2018-09-05T11:24:13.102Z,31.01
2018-09-05T11:25:13.188Z,30.94
2018-09-05T11:26:12.979Z,31.10
2018-09-05T11:27:12.971Z,30.93
2018-09-05T11:28:13.024Z,30.46
2018-09-05T11:29:12.984Z,30.06
2018-09-05T11:30:12.952Z,29.88
2018-09-05T11:31:12.941Z,29.88
2018-09-05T11:32:12.955Z,30.11
2018-09-05T11:33:12.934Z,29.76
2018-09-05T11:34:12.926Z,29.52
2018-09-05T11:35:12.909Z,29.63
2018-09-05T11:36:12.879Z,30.08
2018-09-05T11:37:12.904Z,30.18
2018-09-05T11:38:12.861Z,30.22
2018-09-05T11:39:12.862Z,30.25
2018-09-05T11:40:12.870Z,30.30
2018-09-05T11:41:12.830Z,30.56
2018-09-05T11:42:12.819Z,30.68
2018-09-05T11:43:12.809Z,29.71
2018-09-05T11:44:12.831Z,29.42
2018-09-05T11:45:12.816Z,29.69
2018-09-05T11:46:12.780Z,29.91
2018-09-05T11:47:12.779Z,30.03
2018-09-05T11:48:12.758Z,30.29
2018-09-05T11:49:12.778Z,30.40
2018-09-05T11:50:12.757Z,30.00
2018-09-05T11:51:12.763Z,29.82
2018-09-05T11:52:12.718Z,29.52
2018-09-05T11:53:12.707Z,29.35
2018-09-05T11:54:12.699Z,29.36
2018-09-05T11:55:12.703Z,29.49
2018-09-05T11:56:12.677Z,29.20
2018-09-05T11:57:12.741Z,28.70
2018-09-05T11:58:12.656Z,28.43
2018-09-05T11:59:12.645Z,28.57
2018-09-05T12:00:12.648Z,28.73
2018-09-05T12:01:12.631Z,29.08
2018-09-05T12:02:12.657Z,29.17
2018-09-05T12:03:12.628Z,29.47
2018-09-05T12:04:12.621Z,29.48
2018-09-05T12:05:12.600Z,29.62
2018-09-05T12:06:12.575Z,29.30
2018-09-05T12:07:12.630Z,29.02
2018-09-05T12:08:12.555Z,29.08
2018-09-05T12:09:12.577Z,29.08
2018-09-05T12:10:12.548Z,29.07
2018-09-05T12:11:12.523Z,29.12
2018-09-05T12:12:12.570Z,29.07
2018-09-05T12:13:12.503Z,29.15
2018-09-05T12:14:12.492Z,29.12
2018-09-05T12:15:12.517Z,29.00
2018-09-05T12:16:12.471Z,29.03
2018-09-05T12:17:12.460Z,28.87
2018-09-05T12:18:12.451Z,28.87
2018-09-05T12:19:12.439Z,28.82
2018-09-05T12:20:12.478Z,28.54
2018-09-05T12:21:12.444Z,28.02
2018-09-05T12:22:12.412Z,27.90
2018-09-05T12:23:12.400Z,27.98
2018-09-05T12:24:12.392Z,28.17
2018-09-05T12:25:12.400Z,28.33
2018-09-05T12:26:12.368Z,28.15
2018-09-05T12:27:12.383Z,27.78
2018-09-05T12:28:12.382Z,27.74
2018-09-05T12:29:12.337Z,27.62
2018-09-05T12:30:12.343Z,27.40
2018-09-05T12:31:12.318Z,27.50
2018-09-05T12:32:12.307Z,27.66
2018-09-05T12:33:12.297Z,27.69
2018-09-05T12:34:12.313Z,27.93
2018-09-05T12:35:12.292Z,28.24
2018-09-05T12:36:12.267Z,28.35
2018-09-05T12:37:12.257Z,28.43
2018-09-05T12:38:12.299Z,28.48
2018-09-05T12:39:12.233Z,28.40
2018-09-05T12:40:12.274Z,28.35
2018-09-05T12:41:12.213Z,28.43
2018-09-05T12:42:12.205Z,28.32
2018-09-05T12:43:12.193Z,28.32
2018-09-05T12:44:12.185Z,28.33
2018-09-05T12:45:12.176Z,28.17
2018-09-05T12:46:12.184Z,27.96
2018-09-05T12:47:12.277Z,27.95
2018-09-05T12:48:12.153Z,27.62
2018-09-05T12:49:12.175Z,27.62
2018-09-05T12:50:12.119Z,27.72
2018-09-05T12:51:12.150Z,27.77
2018-09-05T12:52:12.110Z,27.76